createdAt,value
2022-12-29T00:00:54.899Z,2.50
2022-12-29T00:03:21.470Z,2.30
2022-12-29T00:05:55.497Z,3.10
2022-12-29T00:08:40.040Z,2.30
2022-12-29T00:11:15.016Z,2.35
2022-12-29T00:14:00.618Z,2.53
2022-12-29T00:16:27.492Z,3.05
2022-12-29T00:18:54.062Z,2.47
2022-12-29T00:21:41.441Z,2.85
2022-12-29T00:24:28.380Z,2.40
2022-12-29T00:27:38.282Z,2.80
2022-12-29T00:30:29.224Z,1.95
2022-12-29T00:33:14.082Z,2.30
2022-12-29T00:38:30.332Z,2.35
2022-12-29T00:41:15.194Z,1.85
2022-12-29T00:46:26.517Z,2.22
2022-12-29T00:49:11.382Z,1.55
2022-12-29T00:54:04.087Z,1.80
2022-12-29T00:56:30.581Z,1.88
2022-12-29T00:59:01.246Z,2.75
2022-12-29T01:01:27.757Z,3.20
2022-12-29T01:03:57.418Z,2.97
2022-12-29T01:06:28.380Z,3.78
2022-12-29T01:09:13.043Z,3.00
2022-12-29T01:11:40.045Z,4.22
2022-12-29T01:14:07.071Z,3.95
2022-12-29T01:16:34.496Z,3.30
2022-12-29T01:19:01.072Z,2.90
2022-12-29T01:21:27.550Z,2.28
2022-12-29T01:23:53.915Z,1.90
2022-12-29T01:26:20.378Z,1.83
2022-12-29T01:28:47.238Z,0.90
2022-12-29T01:31:15.326Z,1.08
2022-12-29T01:33:43.072Z,1.00
2022-12-29T01:36:12.335Z,1.05
2022-12-29T01:38:39.773Z,0.73
2022-12-29T01:41:07.053Z,1.13
2022-12-29T01:43:51.631Z,1.00
2022-12-29T01:46:33.474Z,0.90
2022-12-29T01:49:11.781Z,0.93
2022-12-29T01:51:52.209Z,0.93
2022-12-29T01:54:26.189Z,1.13
2022-12-29T01:56:54.863Z,1.20
2022-12-29T01:59:26.014Z,1.67
2022-12-29T02:01:52.532Z,1.42
2022-12-29T02:04:19.389Z,1.63
2022-12-29T02:06:54.483Z,2.60
2022-12-29T02:09:20.974Z,2.03
2022-12-29T02:11:47.715Z,2.65
2022-12-29T02:14:15.004Z,2.40
2022-12-29T02:16:56.907Z,1.77
2022-12-29T02:19:45.173Z,2.30
2022-12-29T02:22:26.156Z,2.72
2022-12-29T02:25:27.720Z,2.28
2022-12-29T02:28:04.249Z,3.33
2022-12-29T02:30:44.937Z,2.28
2022-12-29T02:33:26.561Z,2.50
2022-12-29T02:36:08.825Z,1.83
2022-12-29T02:38:44.112Z,2.35
2022-12-29T02:41:33.784Z,2.15
2022-12-29T02:44:25.835Z,2.60
2022-12-29T02:46:57.760Z,2.90
2022-12-29T02:49:50.191Z,1.85
2022-12-29T02:52:22.318Z,2.88
2022-12-29T02:54:54.490Z,2.22
2022-12-29T02:57:23.942Z,1.80
2022-12-29T02:59:56.199Z,2.58
2022-12-29T03:02:30.961Z,3.10
2022-12-29T03:05:30.017Z,2.75
2022-12-29T03:07:59.157Z,2.25
2022-12-29T03:10:45.234Z,2.10
2022-12-29T03:14:01.453Z,2.05
2022-12-29T03:16:34.938Z,2.42
2022-12-29T03:19:03.513Z,3.20
2022-12-29T03:21:59.191Z,2.50
2022-12-29T03:24:30.213Z,2.95
2022-12-29T03:27:00.387Z,3.58
2022-12-29T03:29:30.739Z,2.40
2022-12-29T03:31:59.533Z,2.92
2022-12-29T03:34:27.006Z,3.63
2022-12-29T03:37:00.509Z,4.22
2022-12-29T03:39:27.650Z,3.65
2022-12-29T03:42:04.054Z,3.97
2022-12-29T03:44:40.226Z,4.25
2022-12-29T03:47:06.951Z,3.63
2022-12-29T03:49:34.456Z,3.95
2022-12-29T03:52:00.875Z,3.35
2022-12-29T03:54:27.334Z,4.10
2022-12-29T03:56:53.709Z,3.28
2022-12-29T03:59:20.149Z,4.40
2022-12-29T04:01:47.464Z,4.15
2022-12-29T04:04:14.192Z,4.20
2022-12-29T04:06:40.919Z,3.03
2022-12-29T04:09:07.867Z,3.92
2022-12-29T04:11:34.488Z,3.33
2022-12-29T04:14:01.124Z,3.92
2022-12-29T04:16:27.556Z,3.75
2022-12-29T04:18:54.170Z,3.38
2022-12-29T04:21:20.638Z,4.65
2022-12-29T04:23:47.099Z,3.42
2022-12-29T04:26:13.874Z,2.90
2022-12-29T04:28:41.088Z,2.92
2022-12-29T04:31:07.852Z,2.88
2022-12-29T04:33:34.335Z,3.17
2022-12-29T04:36:00.785Z,3.53
2022-12-29T04:38:27.355Z,2.20
2022-12-29T04:40:53.868Z,3.15
2022-12-29T04:43:20.346Z,2.90
2022-12-29T04:45:47.741Z,2.88
2022-12-29T04:48:14.964Z,2.75
2022-12-29T04:50:42.652Z,2.60
2022-12-29T04:53:09.141Z,3.20
2022-12-29T04:55:35.571Z,2.90
2022-12-29T04:58:02.128Z,3.00
2022-12-29T05:00:28.573Z,3.45
2022-12-29T05:02:55.209Z,2.88
2022-12-29T05:05:21.715Z,3.10
2022-12-29T05:07:48.193Z,4.30
2022-12-29T05:10:14.793Z,3.28
2022-12-29T05:12:41.576Z,2.80
2022-12-29T05:15:12.099Z,3.65
2022-12-29T05:17:38.611Z,4.18
2022-12-29T05:20:06.722Z,4.25
2022-12-29T05:22:33.257Z,3.60
2022-12-29T05:24:59.715Z,3.78
2022-12-29T05:27:26.342Z,3.25
2022-12-29T05:29:52.706Z,3.22
2022-12-29T05:32:19.172Z,4.32
2022-12-29T05:34:45.580Z,3.67
2022-12-29T05:37:12.035Z,3.58
2022-12-29T05:39:38.406Z,3.08
2022-12-29T05:42:04.878Z,3.95
2022-12-29T05:44:31.338Z,2.92
2022-12-29T05:46:57.847Z,4.32
2022-12-29T05:49:24.530Z,3.20
2022-12-29T05:51:50.895Z,3.63
2022-12-29T05:54:17.361Z,3.72
2022-12-29T05:56:43.842Z,2.95
2022-12-29T05:59:10.278Z,4.57
2022-12-29T06:01:36.788Z,3.65
2022-12-29T06:04:03.441Z,4.03
2022-12-29T06:06:30.157Z,5.40
2022-12-29T06:08:56.781Z,3.08
2022-12-29T06:11:23.200Z,4.25
2022-12-29T06:13:49.601Z,4.80
2022-12-29T06:16:16.104Z,4.05
2022-12-29T06:18:43.184Z,4.22
2022-12-29T06:21:09.621Z,3.65
2022-12-29T06:23:36.027Z,3.58
2022-12-29T06:26:02.524Z,3.17
2022-12-29T06:28:29.029Z,4.07
2022-12-29T06:30:55.427Z,3.65
2022-12-29T06:33:22.044Z,5.20
2022-12-29T06:35:48.565Z,4.18
2022-12-29T06:38:15.143Z,4.18
2022-12-29T06:40:44.032Z,3.75
2022-12-29T06:43:10.463Z,4.05
2022-12-29T06:45:39.409Z,4.50
2022-12-29T06:48:06.025Z,3.72
2022-12-29T06:50:32.489Z,3.97
2022-12-29T06:52:58.900Z,4.00
2022-12-29T06:55:25.410Z,3.22
2022-12-29T06:57:55.493Z,5.40
2022-12-29T07:00:23.178Z,4.82
2022-12-29T07:02:49.959Z,4.85
2022-12-29T07:05:16.528Z,3.35
2022-12-29T07:07:43.396Z,3.20
2022-12-29T07:10:09.872Z,2.75
2022-12-29T07:12:36.373Z,4.10
2022-12-29T07:15:02.880Z,3.75
2022-12-29T07:17:29.259Z,3.70
2022-12-29T07:19:55.736Z,4.18
2022-12-29T07:22:22.139Z,5.20
2022-12-29T07:24:48.569Z,4.35
2022-12-29T07:27:15.016Z,4.00
2022-12-29T07:29:41.549Z,5.07
2022-12-29T07:32:08.051Z,4.30
2022-12-29T07:34:34.610Z,3.85
2022-12-29T07:37:01.024Z,4.38
2022-12-29T07:39:27.452Z,4.22
2022-12-29T07:41:55.311Z,3.92
2022-12-29T07:44:23.514Z,3.38
2022-12-29T07:46:55.855Z,3.78
2022-12-29T07:49:24.270Z,3.95
2022-12-29T07:51:50.678Z,4.03
2022-12-29T07:54:19.377Z,3.72
2022-12-29T07:56:46.284Z,3.90
2022-12-29T07:59:13.033Z,3.50
2022-12-29T08:01:39.827Z,4.03
2022-12-29T08:04:06.585Z,4.07
2022-12-29T08:06:33.269Z,3.35
2022-12-29T08:09:07.840Z,4.20
2022-12-29T08:11:39.560Z,4.80
2022-12-29T08:14:06.014Z,5.07
2022-12-29T08:16:33.458Z,3.92
2022-12-29T08:19:00.203Z,4.13
2022-12-29T08:21:28.850Z,4.28
2022-12-29T08:23:55.372Z,4.85
2022-12-29T08:26:21.886Z,5.50
2022-12-29T08:28:48.492Z,4.38
2022-12-29T08:31:15.100Z,5.88
2022-12-29T08:33:41.514Z,6.00
2022-12-29T08:36:08.668Z,4.65
2022-12-29T08:38:35.111Z,4.85
2022-12-29T08:41:04.500Z,5.03
2022-12-29T08:43:31.579Z,5.43
2022-12-29T08:45:59.090Z,3.70
2022-12-29T08:48:26.138Z,4.10
2022-12-29T08:50:53.200Z,4.07
2022-12-29T08:53:19.987Z,3.80
2022-12-29T08:55:47.692Z,5.45
2022-12-29T08:58:15.664Z,4.18
2022-12-29T09:00:42.970Z,4.28
2022-12-29T09:03:09.625Z,3.70
2022-12-29T09:05:36.357Z,3.55
2022-12-29T09:08:02.899Z,3.97
2022-12-29T09:10:29.346Z,5.75
2022-12-29T09:12:55.765Z,5.00
2022-12-29T09:15:22.237Z,5.78
2022-12-29T09:17:48.606Z,6.68
2022-12-29T09:20:17.982Z,5.78
2022-12-29T09:22:45.704Z,8.45
2022-12-29T09:25:15.065Z,5.72
2022-12-29T09:27:41.761Z,5.13
2022-12-29T09:30:11.043Z,6.25
2022-12-29T09:32:43.548Z,5.22
2022-12-29T09:35:11.768Z,6.25
2022-12-29T09:37:38.200Z,5.78
2022-12-29T09:40:06.466Z,3.47
2022-12-29T09:42:46.670Z,4.88
2022-12-29T09:45:19.260Z,3.42
2022-12-29T09:47:47.143Z,3.90
2022-12-29T09:50:33.930Z,3.45
2022-12-29T09:53:00.232Z,2.75
2022-12-29T09:55:46.859Z,2.78
2022-12-29T09:58:15.278Z,4.20
2022-12-29T10:00:55.646Z,2.40
2022-12-29T10:03:25.768Z,2.38
2022-12-29T10:06:22.841Z,2.72
2022-12-29T10:09:07.575Z,2.65
2022-12-29T10:11:49.269Z,2.83
2022-12-29T10:14:53.842Z,2.25
2022-12-29T10:17:28.665Z,2.03
2022-12-29T10:20:53.235Z,1.98
2022-12-29T10:23:38.131Z,2.00
2022-12-29T10:28:53.907Z,1.90
2022-12-29T10:31:25.026Z,2.00
2022-12-29T10:34:04.630Z,3.17
2022-12-29T10:36:40.953Z,1.92
2022-12-29T10:39:14.981Z,2.13
2022-12-29T10:41:52.137Z,2.03
2022-12-29T10:44:20.343Z,1.63
2022-12-29T10:46:56.500Z,1.75
2022-12-29T10:49:27.558Z,1.15
2022-12-29T10:51:57.957Z,1.50
2022-12-29T10:54:54.507Z,1.58
2022-12-29T10:57:50.581Z,1.45
2022-12-29T11:00:22.075Z,1.48
2022-12-29T11:02:54.329Z,2.80
2022-12-29T11:05:29.871Z,2.03
2022-12-29T11:08:01.195Z,2.65
2022-12-29T11:10:35.869Z,2.35
2022-12-29T11:13:11.342Z,1.75
2022-12-29T11:15:48.663Z,1.60
2022-12-29T11:18:27.420Z,4.20
2022-12-29T11:21:00.109Z,2.65
2022-12-29T11:23:32.275Z,1.70
2022-12-29T11:26:22.750Z,1.90
2022-12-29T11:29:12.196Z,1.33
2022-12-29T11:31:56.595Z,1.90
2022-12-29T11:34:26.407Z,2.20
2022-12-29T11:36:59.370Z,1.45
2022-12-29T11:39:33.620Z,1.13
2022-12-29T11:42:00.895Z,1.50
2022-12-29T11:44:28.109Z,1.45
2022-12-29T11:46:56.003Z,1.05
2022-12-29T11:49:25.958Z,1.45
2022-12-29T11:51:58.457Z,1.33
2022-12-29T11:54:32.210Z,1.52
2022-12-29T11:56:59.807Z,1.58
2022-12-29T11:59:30.938Z,1.80
2022-12-29T12:01:59.806Z,3.13
2022-12-29T12:04:31.825Z,1.33
2022-12-29T12:07:50.857Z,1.52
2022-12-29T12:10:55.665Z,1.30
2022-12-29T12:13:37.899Z,1.60
2022-12-29T12:16:19.384Z,2.58
2022-12-29T12:18:52.986Z,2.40
2022-12-29T12:21:22.169Z,1.87
2022-12-29T12:24:00.869Z,3.00
2022-12-29T12:26:44.279Z,1.98
2022-12-29T12:29:20.228Z,1.77
2022-12-29T12:32:02.450Z,1.77
2022-12-29T12:34:36.749Z,1.90
2022-12-29T12:37:23.363Z,1.67
2022-12-29T12:40:09.127Z,1.40
2022-12-29T12:43:09.988Z,1.50
2022-12-29T12:46:08.567Z,1.50
2022-12-29T12:48:44.040Z,1.00
2022-12-29T12:51:16.355Z,1.70
2022-12-29T12:53:56.484Z,2.05
2022-12-29T12:56:31.941Z,1.50
2022-12-29T12:59:10.458Z,2.50
2022-12-29T13:01:40.051Z,1.88
2022-12-29T13:04:44.391Z,1.55
2022-12-29T13:07:32.328Z,2.28
2022-12-29T13:10:15.594Z,1.77
2022-12-29T13:12:47.827Z,1.02
2022-12-29T13:15:39.605Z,1.92
2022-12-29T13:18:38.670Z,2.08
2022-12-29T13:21:40.530Z,1.67
2022-12-29T13:24:37.264Z,2.17
2022-12-29T13:27:37.302Z,1.70
2022-12-29T13:30:20.674Z,2.08
2022-12-29T13:33:08.948Z,2.38
2022-12-29T13:35:55.055Z,2.20
2022-12-29T13:38:36.396Z,1.70
2022-12-29T13:41:14.003Z,1.77
2022-12-29T13:43:43.346Z,2.25
2022-12-29T13:46:30.216Z,1.90
2022-12-29T13:49:02.883Z,2.40
2022-12-29T13:51:30.069Z,1.55
2022-12-29T13:54:02.329Z,1.77
2022-12-29T13:56:43.417Z,1.77
2022-12-29T13:59:21.210Z,1.63
2022-12-29T14:02:38.702Z,2.17
2022-12-29T14:05:25.670Z,2.15
2022-12-29T14:08:05.258Z,1.60
2022-12-29T14:10:39.311Z,2.55
2022-12-29T14:13:11.502Z,2.28
2022-12-29T14:15:43.302Z,1.85
2022-12-29T14:18:15.312Z,2.20
2022-12-29T14:20:51.797Z,1.83
2022-12-29T14:23:41.113Z,1.65
2022-12-29T14:26:07.491Z,1.38
2022-12-29T14:28:36.379Z,1.95
2022-12-29T14:31:04.942Z,4.15
2022-12-29T14:33:33.658Z,1.85
2022-12-29T14:36:19.829Z,1.90
2022-12-29T14:38:47.717Z,1.67
2022-12-29T14:41:39.349Z,1.80
2022-12-29T14:44:08.746Z,1.88
2022-12-29T14:46:59.670Z,2.23
2022-12-29T14:49:30.774Z,2.05
2022-12-29T14:52:30.482Z,2.42
2022-12-29T14:55:01.408Z,2.35
2022-12-29T14:57:36.365Z,2.05
2022-12-29T15:00:09.871Z,1.92
2022-12-29T15:02:41.126Z,2.00
2022-12-29T15:05:25.540Z,2.22
2022-12-29T15:07:53.057Z,2.80
2022-12-29T15:10:21.278Z,1.90
2022-12-29T15:12:53.625Z,2.85
2022-12-29T15:15:26.404Z,2.20
2022-12-29T15:17:53.325Z,2.10
2022-12-29T15:20:27.394Z,2.00
2022-12-29T15:23:10.138Z,2.13
2022-12-29T15:25:37.283Z,2.45
2022-12-29T15:28:07.456Z,2.35
2022-12-29T15:30:35.165Z,2.20
2022-12-29T15:33:03.604Z,2.47
2022-12-29T15:35:35.392Z,2.22
2022-12-29T15:38:15.034Z,2.35
2022-12-29T15:40:44.834Z,3.20
2022-12-29T15:43:47.111Z,1.63
2022-12-29T15:46:14.691Z,2.05
2022-12-29T15:48:41.578Z,2.28
2022-12-29T15:51:20.982Z,1.90
2022-12-29T15:53:50.346Z,1.58
2022-12-29T15:56:16.899Z,1.83
2022-12-29T15:58:49.465Z,3.35
2022-12-29T16:01:20.248Z,2.45
2022-12-29T16:03:47.642Z,1.98
2022-12-29T16:06:32.866Z,1.88
2022-12-29T16:09:07.705Z,1.85
2022-12-29T16:11:41.631Z,1.90
2022-12-29T16:14:17.972Z,1.42
2022-12-29T16:16:47.108Z,2.38
2022-12-29T16:19:30.195Z,1.75
2022-12-29T16:21:59.409Z,1.25
2022-12-29T16:24:29.746Z,1.30
2022-12-29T16:27:16.665Z,1.75
2022-12-29T16:29:43.556Z,3.25
2022-12-29T16:32:31.109Z,1.50
2022-12-29T16:35:12.943Z,1.38
2022-12-29T16:37:40.244Z,2.20
2022-12-29T16:40:18.808Z,2.13
2022-12-29T16:42:51.708Z,2.05
2022-12-29T16:45:24.820Z,2.70
2022-12-29T16:48:06.492Z,2.10
2022-12-29T16:50:34.945Z,1.50
2022-12-29T16:53:02.054Z,1.50
2022-12-29T16:55:28.537Z,1.50
2022-12-29T16:57:59.431Z,2.05
2022-12-29T17:00:35.563Z,2.58
2022-12-29T17:03:03.439Z,3.15
2022-12-29T17:05:29.968Z,2.08
2022-12-29T17:08:01.743Z,2.90
2022-12-29T17:10:48.455Z,2.10
2022-12-29T17:13:14.879Z,2.05
2022-12-29T17:15:41.459Z,1.70
2022-12-29T17:18:13.841Z,2.05
2022-12-29T17:20:40.846Z,1.60
2022-12-29T17:23:17.543Z,2.08
2022-12-29T17:25:49.195Z,1.75
2022-12-29T17:28:32.374Z,3.47
2022-12-29T17:31:02.395Z,2.45
2022-12-29T17:33:35.144Z,2.35
2022-12-29T17:36:01.581Z,1.50
2022-12-29T17:38:30.390Z,3.40
2022-12-29T17:40:57.618Z,2.15
2022-12-29T17:43:24.340Z,1.83
2022-12-29T17:45:56.241Z,2.63
2022-12-29T17:48:23.718Z,1.85
2022-12-29T17:50:52.553Z,1.77
2022-12-29T17:53:25.792Z,2.15
2022-12-29T17:55:52.412Z,2.72
2022-12-29T17:58:21.951Z,1.83
2022-12-29T18:00:50.635Z,1.70
2022-12-29T18:03:24.960Z,3.03
2022-12-29T18:08:17.935Z,2.55
2022-12-29T18:10:45.030Z,2.50
2022-12-29T18:13:25.228Z,2.20
2022-12-29T18:15:53.541Z,1.98
2022-12-29T18:18:22.277Z,2.58
2022-12-29T18:20:50.830Z,3.85
2022-12-29T18:23:29.072Z,2.17
2022-12-29T18:25:59.083Z,2.70
2022-12-29T18:28:26.221Z,2.38
2022-12-29T18:30:53.687Z,2.55
2022-12-29T18:33:24.985Z,2.22
2022-12-29T18:35:56.952Z,2.80
2022-12-29T18:38:23.409Z,2.00
2022-12-29T18:40:50.438Z,2.30
2022-12-29T18:43:18.076Z,3.33
2022-12-29T18:45:48.693Z,1.98
2022-12-29T18:48:16.903Z,2.47
2022-12-29T18:50:43.784Z,1.67
2022-12-29T18:53:18.710Z,2.15
2022-12-29T18:55:45.425Z,1.67
2022-12-29T18:58:12.303Z,2.20
2022-12-29T19:00:39.234Z,2.70
2022-12-29T19:03:06.130Z,2.28
2022-12-29T19:05:41.132Z,1.92
2022-12-29T19:08:08.384Z,1.90
2022-12-29T19:10:35.436Z,2.15
2022-12-29T19:13:02.202Z,2.70
2022-12-29T19:15:35.271Z,3.13
2022-12-29T19:20:51.835Z,3.70
2022-12-29T19:23:21.035Z,2.05
2022-12-29T19:25:49.135Z,3.03
2022-12-29T19:28:21.338Z,1.70
2022-12-29T19:30:52.216Z,2.78
2022-12-29T19:33:21.390Z,2.47
2022-12-29T19:35:48.473Z,2.22
2022-12-29T19:38:15.030Z,2.33
2022-12-29T19:40:44.002Z,2.13
2022-12-29T19:43:12.120Z,2.03
2022-12-29T19:45:43.132Z,1.80
2022-12-29T19:48:17.717Z,1.77
2022-12-29T19:53:11.685Z,2.00
2022-12-29T19:55:44.569Z,2.00
2022-12-29T19:58:10.952Z,2.75
2022-12-29T20:00:40.035Z,2.92
2022-12-29T20:03:06.737Z,2.70
2022-12-29T20:05:33.245Z,2.00
2022-12-29T20:07:59.709Z,2.47
2022-12-29T20:10:26.078Z,2.13
2022-12-29T20:12:52.463Z,1.65
2022-12-29T20:15:19.833Z,2.13
2022-12-29T20:18:12.589Z,1.45
2022-12-29T20:20:34.021Z,1.70
2022-12-29T20:23:00.445Z,1.77
2022-12-29T20:25:46.372Z,2.15
2022-12-29T20:28:14.868Z,2.38
2022-12-29T20:30:41.331Z,1.92
2022-12-29T20:33:08.610Z,2.15
2022-12-29T20:35:36.363Z,2.10
2022-12-29T20:38:02.968Z,2.15
2022-12-29T20:40:29.367Z,2.35
2022-12-29T20:42:55.817Z,2.10
2022-12-29T20:45:22.262Z,1.65
2022-12-29T20:47:48.686Z,2.13
2022-12-29T20:50:15.140Z,1.75
2022-12-29T20:52:41.590Z,2.38
2022-12-29T20:55:08.245Z,2.78
2022-12-29T20:57:57.058Z,2.30
2022-12-29T21:00:22.740Z,1.70
2022-12-29T21:02:50.062Z,1.80
2022-12-29T21:05:25.261Z,1.50
2022-12-29T21:07:53.044Z,1.73
2022-12-29T21:10:20.195Z,1.60
2022-12-29T21:12:46.839Z,2.40
2022-12-29T21:15:15.423Z,3.35
2022-12-29T21:17:43.326Z,3.33
2022-12-29T21:20:19.840Z,2.17
2022-12-29T21:22:47.797Z,1.90
2022-12-29T21:25:14.802Z,2.10
2022-12-29T21:27:44.292Z,2.30
2022-12-29T21:30:11.275Z,2.20
2022-12-29T21:32:37.759Z,1.90
2022-12-29T21:35:04.447Z,1.75
2022-12-29T21:37:30.851Z,2.05
2022-12-29T21:39:57.290Z,1.90
2022-12-29T21:42:23.746Z,1.50
2022-12-29T21:45:08.482Z,2.38
2022-12-29T21:47:53.427Z,1.70
2022-12-29T21:52:46.157Z,1.60
2022-12-29T21:55:12.569Z,1.55
2022-12-29T21:57:57.633Z,1.80
2022-12-29T22:00:42.527Z,1.67
2022-12-29T22:03:27.572Z,2.58
2022-12-29T22:06:12.607Z,3.10
2022-12-29T22:11:43.223Z,2.28
2022-12-29T22:14:09.727Z,2.00
2022-12-29T22:16:36.130Z,2.20
2022-12-29T22:19:02.849Z,1.95
2022-12-29T22:21:30.131Z,2.58
2022-12-29T22:23:56.612Z,2.15
2022-12-29T22:26:23.069Z,2.00
2022-12-29T22:28:51.902Z,1.63
2022-12-29T22:31:27.595Z,1.42
2022-12-29T22:33:56.099Z,1.65
2022-12-29T22:36:23.615Z,1.98
2022-12-29T22:38:52.008Z,2.20
2022-12-29T22:41:18.590Z,1.75
2022-12-29T22:43:45.088Z,2.40
2022-12-29T22:46:11.826Z,2.60
2022-12-29T22:48:38.521Z,2.25
2022-12-29T22:51:05.456Z,2.40
2022-12-29T22:53:31.867Z,2.50
2022-12-29T22:56:07.135Z,1.42
2022-12-29T22:58:34.446Z,1.63
2022-12-29T23:01:01.250Z,2.42
2022-12-29T23:03:28.857Z,3.28
2022-12-29T23:05:59.591Z,1.92
2022-12-29T23:08:27.737Z,2.15
2022-12-29T23:10:54.216Z,2.75
2022-12-29T23:13:20.642Z,2.13
2022-12-29T23:15:47.848Z,2.28
2022-12-29T23:18:14.771Z,2.92
2022-12-29T23:20:41.265Z,2.05
2022-12-29T23:23:07.847Z,2.55
2022-12-29T23:25:37.867Z,1.50
2022-12-29T23:28:07.180Z,2.20
2022-12-29T23:30:33.998Z,2.85
2022-12-29T23:33:00.402Z,2.38
2022-12-29T23:35:26.833Z,1.95
2022-12-29T23:37:53.274Z,2.08
2022-12-29T23:40:19.681Z,1.88
2022-12-29T23:42:46.220Z,2.03
2022-12-29T23:45:12.926Z,2.40
2022-12-29T23:47:39.346Z,2.60
2022-12-29T23:50:06.265Z,2.45
2022-12-29T23:52:32.679Z,2.50
2022-12-29T23:54:59.117Z,2.53
2022-12-29T23:57:25.559Z,1.98
2022-12-29T23:59:51.953Z,2.08
